Mineral City, OH (44656)

1:27 PM EST on February 10, 2016 (GMT -0500)
Fox Chase | | Change Station
CLOSE
Current Station
Personal Weather Station
Location: Dover, OH
Elevation: 994 ft
Nearby Weather Stations

Elev 994 ft 40.54 °N, 81.41 °W | Updated 13 minutes ago

Snow
Snow
23.7 °F
Feels Like 15 °F
N
7.8
Wind Variable Wind from SSW

Today
High -- | Low -- °F
--% Chance of Precip.
Yesterday
High -- | Low -- °F
Precip. -- in
Pressure 29.86 in
Visibility 2.0 miles
Clouds Mostly Cloudy 2300 ft
Overcast 3100 ft
Windchill 15 °F
Dew Point 17 °F
Humidity 74%
Rainfall 0.00 in
Snow Depth Not available.
7:26 AM 5:53 PM
Waxing Crescent, 6% visible
SPECI KPHD 101819Z AUTO 23008KT 2SM -SN BKN023 OVC031 M07/M10 A2986 RMK AO2 P0000 T10671100
Pressure 29.86 in
Visibility 2.0 miles
Clouds Mostly Cloudy 2300 ft
Overcast 3100 ft
Windchill 15 °F
Dew Point 17 °F
Humidity 74%
Rainfall 0.00 in
Snow Depth Not available.
7:26 AM 5:53 PM
Waxing Crescent, 6% visible
SPECI KPHD 101819Z AUTO 23008KT 2SM -SN BKN023 OVC031 M07/M10 A2986 RMK AO2 P0000 T10671100

10-Day Weather Forecast

Almanac

Astronomy

Feb. 10, 2016 Rise Set
Actual Time
Civil Twilight
Nautical Twilight
Astronomical Twilight
Moon
Length of Visible Light
Length of Day
Tomorrow will be .
, % of the Moon is Illuminated

Today's Extremes

State Highs State Lows

Community

WunderPhotos

Upload Photos

1,891,907 photos uploaded!

WunderBlog® & News

Nearby

Air Quality

  Air Quality AQ Index Pollutant
Not available.

Snow Depth

Station Depth Elevation

Earthquake Activity

City Distance Mag. Time & Date
Minimum magnitude displayed is 2.5.

Coastal Water Temperatures

Place Temperature

Stations

Nearby Weather Stations

Station Location Temp. Windchill Dew Point Humidity Wind Precip. Elev Updated Type
                   

Watches & Warnings

There are currently no watches in effect.